sensor_id;sensor_type;location;lat;lon;timestamp;temperature;humidity
7307;DHT22;3694;48.732;9.248;2023-05-07T00:01:42;12.40;99.90
7307;DHT22;3694;48.732;9.248;2023-05-07T00:04:08;12.30;99.90
7307;DHT22;3694;48.732;9.248;2023-05-07T00:06:34;12.20;99.90
7307;DHT22;3694;48.732;9.248;2023-05-07T00:08:59;12.10;99.90
7307;DHT22;3694;48.732;9.248;2023-05-07T00:11:26;12.10;99.90
7307;DHT22;3694;48.732;9.248;2023-05-07T00:13:52;12.00;99.90
7307;DHT22;3694;48.732;9.248;2023-05-07T00:16:18;12.00;99.90
7307;DHT22;3694;48.732;9.248;2023-05-07T00:18:43;12.00;99.90
7307;DHT22;3694;48.732;9.248;2023-05-07T00:21:09;12.00;99.90
7307;DHT22;3694;48.732;9.248;2023-05-07T00:23:34;11.90;99.90
7307;DHT22;3694;48.732;9.248;2023-05-07T00:26:00;11.90;99.90
7307;DHT22;3694;48.732;9.248;2023-05-07T00:28:25;11.90;99.90
7307;DHT22;3694;48.732;9.248;2023-05-07T00:30:51;11.90;99.90
7307;DHT22;3694;48.732;9.248;2023-05-07T00:33:16;11.80;99.90
7307;DHT22;3694;48.732;9.248;2023-05-07T00:35:42;11.70;99.90
7307;DHT22;3694;48.732;9.248;2023-05-07T00:38:08;11.70;99.90
7307;DHT22;3694;48.732;9.248;2023-05-07T00:40:33;11.70;99.90
7307;DHT22;3694;48.732;9.248;2023-05-07T00:42:59;11.50;99.90
7307;DHT22;3694;48.732;9.248;2023-05-07T00:45:28;11.60;99.90
7307;DHT22;3694;48.732;9.248;2023-05-07T00:47:59;11.60;99.90
7307;DHT22;3694;48.732;9.248;2023-05-07T00:50:26;11.50;99.90
7307;DHT22;3694;48.732;9.248;2023-05-07T00:52:52;11.50;99.90
7307;DHT22;3694;48.732;9.248;2023-05-07T00:55:18;11.50;99.90
7307;DHT22;3694;48.732;9.248;2023-05-07T00:57:44;11.40;99.90
7307;DHT22;3694;48.732;9.248;2023-05-07T01:00:10;11.30;99.90
7307;DHT22;3694;48.732;9.248;2023-05-07T01:02:38;11.20;99.90
7307;DHT22;3694;48.732;9.248;2023-05-07T01:05:05;11.20;99.90
7307;DHT22;3694;48.732;9.248;2023-05-07T01:07:32;11.20;99.90
7307;DHT22;3694;48.732;9.248;2023-05-07T01:09:59;11.20;99.90
7307;DHT22;3694;48.732;9.248;2023-05-07T01:12:25;11.20;99.90
7307;DHT22;3694;48.732;9.248;2023-05-07T01:14:52;11.10;99.90
7307;DHT22;3694;48.732;9.248;2023-05-07T01:17:17;11.10;99.90
7307;DHT22;3694;48.732;9.248;2023-05-07T01:19:43;11.00;99.90
7307;DHT22;3694;48.732;9.248;2023-05-07T01:22:10;11.00;99.90
7307;DHT22;3694;48.732;9.248;2023-05-07T01:24:36;11.00;99.90
7307;DHT22;3694;48.732;9.248;2023-05-07T01:27:02;11.00;99.90
7307;DHT22;3694;48.732;9.248;2023-05-07T01:29:28;11.10;99.90
7307;DHT22;3694;48.732;9.248;2023-05-07T01:31:55;11.10;99.90
7307;DHT22;3694;48.732;9.248;2023-05-07T01:34:22;11.10;99.90
7307;DHT22;3694;48.732;9.248;2023-05-07T01:36:48;11.20;99.90
7307;DHT22;3694;48.732;9.248;2023-05-07T01:39:14;11.10;99.90
7307;DHT22;3694;48.732;9.248;2023-05-07T01:41:41;11.10;99.90
7307;DHT22;3694;48.732;9.248;2023-05-07T01:44:08;11.20;99.90
7307;DHT22;3694;48.732;9.248;2023-05-07T01:46:35;11.30;99.90
7307;DHT22;3694;48.732;9.248;2023-05-07T01:49:02;11.20;99.90
7307;DHT22;3694;48.732;9.248;2023-05-07T01:51:27;11.20;99.90
7307;DHT22;3694;48.732;9.248;2023-05-07T01:53:53;11.20;99.90
7307;DHT22;3694;48.732;9.248;2023-05-07T01:56:19;11.20;99.90
7307;DHT22;3694;48.732;9.248;2023-05-07T01:58:46;11.10;99.90
7307;DHT22;3694;48.732;9.248;2023-05-07T02:01:13;11.10;99.90
7307;DHT22;3694;48.732;9.248;2023-05-07T02:03:39;11.00;99.90
7307;DHT22;3694;48.732;9.248;2023-05-07T02:06:04;11.00;99.90
7307;DHT22;3694;48.732;9.248;2023-05-07T02:08:30;11.00;99.90
7307;DHT22;3694;48.732;9.248;2023-05-07T02:10:56;11.00;99.90
7307;DHT22;3694;48.732;9.248;2023-05-07T02:13:21;11.10;99.90
7307;DHT22;3694;48.732;9.248;2023-05-07T02:15:48;10.90;99.90
7307;DHT22;3694;48.732;9.248;2023-05-07T02:18:16;10.90;99.90
7307;DHT22;3694;48.732;9.248;2023-05-07T02:20:42;10.90;99.90
7307;DHT22;3694;48.732;9.248;2023-05-07T02:23:08;10.90;99.90
7307;DHT22;3694;48.732;9.248;2023-05-07T02:25:33;10.90;99.90
7307;DHT22;3694;48.732;9.248;2023-05-07T02:27:59;10.90;99.90
7307;DHT22;3694;48.732;9.248;2023-05-07T02:30:24;10.90;99.90
7307;DHT22;3694;48.732;9.248;2023-05-07T02:32:50;10.90;99.90
7307;DHT22;3694;48.732;9.248;2023-05-07T02:35:16;10.90;99.90
7307;DHT22;3694;48.732;9.248;2023-05-07T02:37:41;10.80;99.90
7307;DHT22;3694;48.732;9.248;2023-05-07T02:40:07;10.90;99.90
7307;DHT22;3694;48.732;9.248;2023-05-07T02:42:33;10.90;99.90
7307;DHT22;3694;48.732;9.248;2023-05-07T02:44:58;10.90;99.90
7307;DHT22;3694;48.732;9.248;2023-05-07T02:47:24;10.70;99.90
7307;DHT22;3694;48.732;9.248;2023-05-07T02:49:52;10.70;99.90
7307;DHT22;3694;48.732;9.248;2023-05-07T02:52:18;10.60;99.90
7307;DHT22;3694;48.732;9.248;2023-05-07T02:54:43;10.50;99.90
7307;DHT22;3694;48.732;9.248;2023-05-07T02:57:09;10.40;99.90
7307;DHT22;3694;48.732;9.248;2023-05-07T02:59:34;10.40;99.90
7307;DHT22;3694;48.732;9.248;2023-05-07T03:02:00;10.40;99.90
7307;DHT22;3694;48.732;9.248;2023-05-07T03:04:25;10.30;99.90
7307;DHT22;3694;48.732;9.248;2023-05-07T03:06:51;10.30;99.90
7307;DHT22;3694;48.732;9.248;2023-05-07T03:09:16;10.30;99.90
7307;DHT22;3694;48.732;9.248;2023-05-07T03:11:42;10.20;99.90
7307;DHT22;3694;48.732;9.248;2023-05-07T03:14:08;10.20;99.90
7307;DHT22;3694;48.732;9.248;2023-05-07T03:16:33;10.20;99.90
7307;DHT22;3694;48.732;9.248;2023-05-07T03:18:59;10.20;99.90
7307;DHT22;3694;48.732;9.248;2023-05-07T03:21:24;10.10;99.90
7307;DHT22;3694;48.732;9.248;2023-05-07T03:23:51;9.90;99.90
7307;DHT22;3694;48.732;9.248;2023-05-07T03:26:17;9.90;99.90
7307;DHT22;3694;48.732;9.248;2023-05-07T03:28:42;9.80;99.90
7307;DHT22;3694;48.732;9.248;2023-05-07T03:31:08;9.80;99.90
7307;DHT22;3694;48.732;9.248;2023-05-07T03:33:34;9.80;99.90
7307;DHT22;3694;48.732;9.248;2023-05-07T03:36:00;9.90;99.90
7307;DHT22;3694;48.732;9.248;2023-05-07T03:38:26;9.90;99.90
7307;DHT22;3694;48.732;9.248;2023-05-07T03:40:51;9.90;99.90
7307;DHT22;3694;48.732;9.248;2023-05-07T03:43:17;9.90;99.90
7307;DHT22;3694;48.732;9.248;2023-05-07T03:45:42;10.00;99.90
7307;DHT22;3694;48.732;9.248;2023-05-07T03:48:08;10.00;99.90
7307;DHT22;3694;48.732;9.248;2023-05-07T03:50:34;10.10;99.90
7307;DHT22;3694;48.732;9.248;2023-05-07T03:52:59;10.10;99.90
7307;DHT22;3694;48.732;9.248;2023-05-07T03:55:25;10.00;99.90
7307;DHT22;3694;48.732;9.248;2023-05-07T03:57:50;10.00;99.90
7307;DHT22;3694;48.732;9.248;2023-05-07T04:00:16;9.90;99.90
7307;DHT22;3694;48.732;9.248;2023-05-07T04:02:42;9.80;99.90
7307;DHT22;3694;48.732;9.248;2023-05-07T04:05:07;9.80;99.90
7307;DHT22;3694;48.732;9.248;2023-05-07T04:07:33;9.80;99.90
7307;DHT22;3694;48.732;9.248;2023-05-07T04:09:58;9.80;99.90
7307;DHT22;3694;48.732;9.248;2023-05-07T04:12:24;9.80;99.90
7307;DHT22;3694;48.732;9.248;2023-05-07T04:14:49;9.80;99.90
7307;DHT22;3694;48.732;9.248;2023-05-07T04:17:15;9.90;99.90
7307;DHT22;3694;48.732;9.248;2023-05-07T04:19:40;10.00;99.90
7307;DHT22;3694;48.732;9.248;2023-05-07T04:22:10;10.10;99.90
7307;DHT22;3694;48.732;9.248;2023-05-07T04:24:36;10.20;99.90
7307;DHT22;3694;48.732;9.248;2023-05-07T04:27:01;10.30;99.90
7307;DHT22;3694;48.732;9.248;2023-05-07T04:29:27;10.30;99.90
7307;DHT22;3694;48.732;9.248;2023-05-07T04:31:53;10.40;99.90
7307;DHT22;3694;48.732;9.248;2023-05-07T04:34:21;10.50;99.90
7307;DHT22;3694;48.732;9.248;2023-05-07T04:36:46;10.70;99.90
7307;DHT22;3694;48.732;9.248;2023-05-07T04:39:13;10.80;99.90
7307;DHT22;3694;48.732;9.248;2023-05-07T04:41:38;11.00;99.90
7307;DHT22;3694;48.732;9.248;2023-05-07T04:44:04;11.10;99.90
7307;DHT22;3694;48.732;9.248;2023-05-07T04:46:30;11.30;99.90
7307;DHT22;3694;48.732;9.248;2023-05-07T04:48:55;11.40;99.90
7307;DHT22;3694;48.732;9.248;2023-05-07T04:51:21;11.30;99.90
7307;DHT22;3694;48.732;9.248;2023-05-07T04:53:46;11.30;99.90
7307;DHT22;3694;48.732;9.248;2023-05-07T04:56:12;11.30;99.90
7307;DHT22;3694;48.732;9.248;2023-05-07T04:58:37;11.30;99.90
7307;DHT22;3694;48.732;9.248;2023-05-07T05:01:03;11.30;99.90
7307;DHT22;3694;48.732;9.248;2023-05-07T05:03:29;11.20;99.90
7307;DHT22;3694;48.732;9.248;2023-05-07T05:05:55;11.20;99.90
7307;DHT22;3694;48.732;9.248;2023-05-07T05:08:20;11.20;99.90
7307;DHT22;3694;48.732;9.248;2023-05-07T05:10:46;11.20;99.90
7307;DHT22;3694;48.732;9.248;2023-05-07T05:13:14;11.30;99.90
7307;DHT22;3694;48.732;9.248;2023-05-07T05:15:39;11.40;99.90
7307;DHT22;3694;48.732;9.248;2023-05-07T05:18:05;11.40;99.90
7307;DHT22;3694;48.732;9.248;2023-05-07T05:20:30;11.40;99.90
7307;DHT22;3694;48.732;9.248;2023-05-07T05:22:56;11.50;99.90
7307;DHT22;3694;48.732;9.248;2023-05-07T05:25:21;11.50;99.90
7307;DHT22;3694;48.732;9.248;2023-05-07T05:27:47;11.70;99.90
7307;DHT22;3694;48.732;9.248;2023-05-07T05:30:12;12.10;99.90
7307;DHT22;3694;48.732;9.248;2023-05-07T05:32:38;12.50;99.90
7307;DHT22;3694;48.732;9.248;2023-05-07T05:35:04;12.90;99.90
7307;DHT22;3694;48.732;9.248;2023-05-07T05:37:29;13.30;99.90
7307;DHT22;3694;48.732;9.248;2023-05-07T05:39:56;13.80;99.90
7307;DHT22;3694;48.732;9.248;2023-05-07T05:42:23;14.30;99.90
7307;DHT22;3694;48.732;9.248;2023-05-07T05:44:48;14.70;99.90
7307;DHT22;3694;48.732;9.248;2023-05-07T05:47:14;15.40;99.90
7307;DHT22;3694;48.732;9.248;2023-05-07T05:49:39;16.40;99.40
7307;DHT22;3694;48.732;9.248;2023-05-07T05:52:05;17.40;97.80
7307;DHT22;3694;48.732;9.248;2023-05-07T05:54:30;18.40;96.80
7307;DHT22;3694;48.732;9.248;2023-05-07T05:56:56;19.20;95.70
7307;DHT22;3694;48.732;9.248;2023-05-07T05:59:22;19.80;95.10
7307;DHT22;3694;48.732;9.248;2023-05-07T06:01:48;20.50;93.70
7307;DHT22;3694;48.732;9.248;2023-05-07T06:04:13;21.00;93.30
7307;DHT22;3694;48.732;9.248;2023-05-07T06:06:39;21.30;91.90
7307;DHT22;3694;48.732;9.248;2023-05-07T06:09:04;21.50;91.50
7307;DHT22;3694;48.732;9.248;2023-05-07T06:11:31;21.70;91.70
7307;DHT22;3694;48.732;9.248;2023-05-07T06:13:57;22.00;91.60
7307;DHT22;3694;48.732;9.248;2023-05-07T06:16:22;21.90;90.70
7307;DHT22;3694;48.732;9.248;2023-05-07T06:18:48;21.90;91.00
7307;DHT22;3694;48.732;9.248;2023-05-07T06:21:14;21.90;90.20
7307;DHT22;3694;48.732;9.248;2023-05-07T06:23:40;22.10;90.60
7307;DHT22;3694;48.732;9.248;2023-05-07T06:26:06;22.20;90.20
7307;DHT22;3694;48.732;9.248;2023-05-07T06:28:32;21.80;90.10
7307;DHT22;3694;48.732;9.248;2023-05-07T06:31:14;21.40;90.90
7307;DHT22;3694;48.732;9.248;2023-05-07T06:33:40;21.60;90.40
7307;DHT22;3694;48.732;9.248;2023-05-07T06:36:06;21.90;91.00
7307;DHT22;3694;48.732;9.248;2023-05-07T06:38:31;21.70;90.60
7307;DHT22;3694;48.732;9.248;2023-05-07T06:40:57;21.70;90.60
7307;DHT22;3694;48.732;9.248;2023-05-07T06:43:23;21.50;90.10
7307;DHT22;3694;48.732;9.248;2023-05-07T06:45:48;21.00;90.40
7307;DHT22;3694;48.732;9.248;2023-05-07T06:48:14;20.30;90.60
7307;DHT22;3694;48.732;9.248;2023-05-07T06:50:39;20.10;91.30
7307;DHT22;3694;48.732;9.248;2023-05-07T06:53:05;19.40;91.70
7307;DHT22;3694;48.732;9.248;2023-05-07T06:55:30;19.20;92.00
7307;DHT22;3694;48.732;9.248;2023-05-07T06:57:56;19.00;92.10
7307;DHT22;3694;48.732;9.248;2023-05-07T07:00:23;19.50;92.30
7307;DHT22;3694;48.732;9.248;2023-05-07T07:02:48;20.50;92.50
7307;DHT22;3694;48.732;9.248;2023-05-07T07:05:14;21.60;91.60
7307;DHT22;3694;48.732;9.248;2023-05-07T07:07:40;22.20;90.50
7307;DHT22;3694;48.732;9.248;2023-05-07T07:10:06;22.00;90.80
7307;DHT22;3694;48.732;9.248;2023-05-07T07:12:31;22.40;91.30
7307;DHT22;3694;48.732;9.248;2023-05-07T07:14:57;23.00;90.60
7307;DHT22;3694;48.732;9.248;2023-05-07T07:17:22;23.40;89.70
7307;DHT22;3694;48.732;9.248;2023-05-07T07:19:48;24.20;90.00
7307;DHT22;3694;48.732;9.248;2023-05-07T07:22:14;24.00;88.30
7307;DHT22;3694;48.732;9.248;2023-05-07T07:24:39;24.40;88.50
7307;DHT22;3694;48.732;9.248;2023-05-07T07:27:05;24.50;87.00
7307;DHT22;3694;48.732;9.248;2023-05-07T07:29:30;24.30;86.10
7307;DHT22;3694;48.732;9.248;2023-05-07T07:31:56;24.80;89.50
7307;DHT22;3694;48.732;9.248;2023-05-07T07:34:21;25.00;86.30
7307;DHT22;3694;48.732;9.248;2023-05-07T07:36:47;25.60;85.70
7307;DHT22;3694;48.732;9.248;2023-05-07T07:39:13;25.20;86.10
7307;DHT22;3694;48.732;9.248;2023-05-07T07:41:38;25.00;84.70
7307;DHT22;3694;48.732;9.248;2023-05-07T07:44:04;25.30;87.10
7307;DHT22;3694;48.732;9.248;2023-05-07T07:46:32;25.90;87.20
7307;DHT22;3694;48.732;9.248;2023-05-07T07:48:58;26.20;83.90
7307;DHT22;3694;48.732;9.248;2023-05-07T07:51:25;26.10;83.60
7307;DHT22;3694;48.732;9.248;2023-05-07T07:53:51;26.50;82.30
7307;DHT22;3694;48.732;9.248;2023-05-07T07:56:17;25.80;83.10
7307;DHT22;3694;48.732;9.248;2023-05-07T07:58:42;26.00;82.80
7307;DHT22;3694;48.732;9.248;2023-05-07T08:01:08;26.10;82.10
7307;DHT22;3694;48.732;9.248;2023-05-07T08:03:33;25.40;82.00
7307;DHT22;3694;48.732;9.248;2023-05-07T08:05:59;25.90;82.40
7307;DHT22;3694;48.732;9.248;2023-05-07T08:08:25;25.70;82.00
7307;DHT22;3694;48.732;9.248;2023-05-07T08:10:50;25.50;83.70
7307;DHT22;3694;48.732;9.248;2023-05-07T08:13:17;26.00;84.80
7307;DHT22;3694;48.732;9.248;2023-05-07T08:15:43;26.70;79.00
7307;DHT22;3694;48.732;9.248;2023-05-07T08:18:08;26.50;79.70
7307;DHT22;3694;48.732;9.248;2023-05-07T08:20:35;26.50;79.40
7307;DHT22;3694;48.732;9.248;2023-05-07T08:23:04;26.30;84.10
7307;DHT22;3694;48.732;9.248;2023-05-07T08:25:33;26.20;78.30
7307;DHT22;3694;48.732;9.248;2023-05-07T08:27:59;26.30;81.40
7307;DHT22;3694;48.732;9.248;2023-05-07T08:30:24;26.40;81.80
7307;DHT22;3694;48.732;9.248;2023-05-07T08:32:50;26.90;79.90
7307;DHT22;3694;48.732;9.248;2023-05-07T08:35:15;26.90;81.30
7307;DHT22;3694;48.732;9.248;2023-05-07T08:37:41;26.70;77.30
7307;DHT22;3694;48.732;9.248;2023-05-07T08:40:07;27.00;81.50
7307;DHT22;3694;48.732;9.248;2023-05-07T08:42:35;27.20;82.10
7307;DHT22;3694;48.732;9.248;2023-05-07T08:45:03;27.10;82.50
7307;DHT22;3694;48.732;9.248;2023-05-07T08:47:38;27.50;81.10
7307;DHT22;3694;48.732;9.248;2023-05-07T08:50:06;27.60;78.00
7307;DHT22;3694;48.732;9.248;2023-05-07T08:52:31;27.70;78.40
7307;DHT22;3694;48.732;9.248;2023-05-07T08:54:58;27.40;78.40
7307;DHT22;3694;48.732;9.248;2023-05-07T08:57:24;26.60;80.10
7307;DHT22;3694;48.732;9.248;2023-05-07T08:59:49;26.00;78.50
7307;DHT22;3694;48.732;9.248;2023-05-07T09:02:15;25.50;79.20
7307;DHT22;3694;48.732;9.248;2023-05-07T09:04:41;25.00;81.40
7307;DHT22;3694;48.732;9.248;2023-05-07T09:07:07;25.30;80.70
7307;DHT22;3694;48.732;9.248;2023-05-07T09:09:33;25.70;84.40
7307;DHT22;3694;48.732;9.248;2023-05-07T09:11:59;25.90;83.00
7307;DHT22;3694;48.732;9.248;2023-05-07T09:14:25;26.10;80.40
7307;DHT22;3694;48.732;9.248;2023-05-07T09:16:52;25.70;81.30
7307;DHT22;3694;48.732;9.248;2023-05-07T09:19:23;26.10;79.80
7307;DHT22;3694;48.732;9.248;2023-05-07T09:21:49;26.20;78.60
7307;DHT22;3694;48.732;9.248;2023-05-07T09:24:15;25.90;78.60
7307;DHT22;3694;48.732;9.248;2023-05-07T09:26:41;25.80;80.20
7307;DHT22;3694;48.732;9.248;2023-05-07T09:29:07;26.00;80.50
7307;DHT22;3694;48.732;9.248;2023-05-07T09:31:38;26.40;81.40
7307;DHT22;3694;48.732;9.248;2023-05-07T09:34:05;26.50;79.50
7307;DHT22;3694;48.732;9.248;2023-05-07T09:36:31;26.00;78.40
7307;DHT22;3694;48.732;9.248;2023-05-07T09:39:00;26.10;80.10
7307;DHT22;3694;48.732;9.248;2023-05-07T09:41:26;26.30;79.10
7307;DHT22;3694;48.732;9.248;2023-05-07T09:43:55;26.50;79.50
7307;DHT22;3694;48.732;9.248;2023-05-07T09:46:25;26.30;78.40
7307;DHT22;3694;48.732;9.248;2023-05-07T09:48:53;26.90;82.10
7307;DHT22;3694;48.732;9.248;2023-05-07T09:51:38;26.70;78.50
7307;DHT22;3694;48.732;9.248;2023-05-07T09:54:05;26.70;78.70
7307;DHT22;3694;48.732;9.248;2023-05-07T09:56:31;26.30;80.20
7307;DHT22;3694;48.732;9.248;2023-05-07T09:58:59;26.20;78.60
7307;DHT22;3694;48.732;9.248;2023-05-07T10:01:26;26.60;79.10
7307;DHT22;3694;48.732;9.248;2023-05-07T10:03:53;26.60;80.70
7307;DHT22;3694;48.732;9.248;2023-05-07T10:06:20;26.60;78.00
7307;DHT22;3694;48.732;9.248;2023-05-07T10:08:46;26.60;78.70
7307;DHT22;3694;48.732;9.248;2023-05-07T10:11:12;26.80;81.00
7307;DHT22;3694;48.732;9.248;2023-05-07T10:13:37;27.10;81.10
7307;DHT22;3694;48.732;9.248;2023-05-07T10:16:04;27.10;76.40
7307;DHT22;3694;48.732;9.248;2023-05-07T10:18:31;27.30;77.10
7307;DHT22;3694;48.732;9.248;2023-05-07T10:21:09;27.10;79.90
7307;DHT22;3694;48.732;9.248;2023-05-07T10:23:36;27.10;77.90
7307;DHT22;3694;48.732;9.248;2023-05-07T10:26:04;27.00;78.90
7307;DHT22;3694;48.732;9.248;2023-05-07T10:28:34;26.90;79.10
7307;DHT22;3694;48.732;9.248;2023-05-07T10:31:20;27.10;79.30
7307;DHT22;3694;48.732;9.248;2023-05-07T10:33:49;26.80;79.20
7307;DHT22;3694;48.732;9.248;2023-05-07T10:36:17;26.60;79.80
7307;DHT22;3694;48.732;9.248;2023-05-07T10:38:43;26.40;77.80
7307;DHT22;3694;48.732;9.248;2023-05-07T10:41:09;26.60;76.60
7307;DHT22;3694;48.732;9.248;2023-05-07T10:43:41;27.00;78.70
7307;DHT22;3694;48.732;9.248;2023-05-07T10:46:18;27.10;78.00
7307;DHT22;3694;48.732;9.248;2023-05-07T10:51:36;27.40;76.00
7307;DHT22;3694;48.732;9.248;2023-05-07T10:54:19;27.60;74.40
7307;DHT22;3694;48.732;9.248;2023-05-07T10:56:46;27.60;74.60
7307;DHT22;3694;48.732;9.248;2023-05-07T11:02:04;28.40;75.90
7307;DHT22;3694;48.732;9.248;2023-05-07T11:04:32;28.70;72.80
7307;DHT22;3694;48.732;9.248;2023-05-07T11:15:10;29.00;69.60
7307;DHT22;3694;48.732;9.248;2023-05-07T11:17:55;29.30;70.50
7307;DHT22;3694;48.732;9.248;2023-05-07T11:20:51;29.60;73.40
7307;DHT22;3694;48.732;9.248;2023-05-07T11:26:04;29.60;72.80
7307;DHT22;3694;48.732;9.248;2023-05-07T11:28:33;29.40;72.00
7307;DHT22;3694;48.732;9.248;2023-05-07T11:31:02;29.10;69.80
7307;DHT22;3694;48.732;9.248;2023-05-07T11:33:28;29.20;68.80
7307;DHT22;3694;48.732;9.248;2023-05-07T11:35:54;29.00;68.60
7307;DHT22;3694;48.732;9.248;2023-05-07T11:38:20;28.50;67.20
7307;DHT22;3694;48.732;9.248;2023-05-07T11:40:53;28.10;66.40
7307;DHT22;3694;48.732;9.248;2023-05-07T11:43:19;27.70;68.70
7307;DHT22;3694;48.732;9.248;2023-05-07T11:45:48;27.40;72.50
7307;DHT22;3694;48.732;9.248;2023-05-07T11:48:14;27.20;70.60
7307;DHT22;3694;48.732;9.248;2023-05-07T11:51:04;26.80;69.50
7307;DHT22;3694;48.732;9.248;2023-05-07T11:53:41;26.40;67.30
7307;DHT22;3694;48.732;9.248;2023-05-07T11:58:33;25.90;68.50
7307;DHT22;3694;48.732;9.248;2023-05-07T12:00:59;25.80;69.90
7307;DHT22;3694;48.732;9.248;2023-05-07T12:03:25;25.70;74.80
7307;DHT22;3694;48.732;9.248;2023-05-07T12:05:50;25.50;70.00
7307;DHT22;3694;48.732;9.248;2023-05-07T12:08:17;25.40;69.40
7307;DHT22;3694;48.732;9.248;2023-05-07T12:10:44;24.80;70.20
7307;DHT22;3694;48.732;9.248;2023-05-07T12:13:19;24.50;71.00
7307;DHT22;3694;48.732;9.248;2023-05-07T12:15:45;24.50;73.90
7307;DHT22;3694;48.732;9.248;2023-05-07T12:18:12;24.30;73.70
7307;DHT22;3694;48.732;9.248;2023-05-07T12:20:38;24.00;71.70
7307;DHT22;3694;48.732;9.248;2023-05-07T12:23:04;23.70;73.70
7307;DHT22;3694;48.732;9.248;2023-05-07T12:25:31;23.30;72.40
7307;DHT22;3694;48.732;9.248;2023-05-07T12:27:57;23.10;73.90
7307;DHT22;3694;48.732;9.248;2023-05-07T12:30:24;22.90;73.30
7307;DHT22;3694;48.732;9.248;2023-05-07T12:32:55;22.70;74.10
7307;DHT22;3694;48.732;9.248;2023-05-07T12:35:31;22.40;76.10
7307;DHT22;3694;48.732;9.248;2023-05-07T12:37:59;21.90;74.60
7307;DHT22;3694;48.732;9.248;2023-05-07T12:40:36;21.50;76.50
7307;DHT22;3694;48.732;9.248;2023-05-07T12:43:02;21.10;76.60
7307;DHT22;3694;48.732;9.248;2023-05-07T12:45:27;20.70;76.70
7307;DHT22;3694;48.732;9.248;2023-05-07T12:47:53;20.40;77.30
7307;DHT22;3694;48.732;9.248;2023-05-07T12:50:18;20.20;78.90
7307;DHT22;3694;48.732;9.248;2023-05-07T12:52:47;20.00;79.20
7307;DHT22;3694;48.732;9.248;2023-05-07T12:55:16;19.70;80.90
7307;DHT22;3694;48.732;9.248;2023-05-07T12:57:45;19.30;82.20
7307;DHT22;3694;48.732;9.248;2023-05-07T13:00:11;18.80;82.90
7307;DHT22;3694;48.732;9.248;2023-05-07T13:02:39;18.30;83.20
7307;DHT22;3694;48.732;9.248;2023-05-07T13:05:05;17.90;82.90
7307;DHT22;3694;48.732;9.248;2023-05-07T13:07:31;17.60;83.80
7307;DHT22;3694;48.732;9.248;2023-05-07T13:09:57;17.20;86.10
7307;DHT22;3694;48.732;9.248;2023-05-07T13:12:22;16.60;90.60
7307;DHT22;3694;48.732;9.248;2023-05-07T13:14:48;15.80;96.50
7307;DHT22;3694;48.732;9.248;2023-05-07T13:17:13;15.30;99.90
7307;DHT22;3694;48.732;9.248;2023-05-07T13:19:39;14.90;99.90
7307;DHT22;3694;48.732;9.248;2023-05-07T13:22:04;14.60;99.90
7307;DHT22;3694;48.732;9.248;2023-05-07T13:24:30;14.40;99.90
7307;DHT22;3694;48.732;9.248;2023-05-07T13:26:55;14.20;99.90
7307;DHT22;3694;48.732;9.248;2023-05-07T13:29:21;14.00;99.90
7307;DHT22;3694;48.732;9.248;2023-05-07T13:31:54;13.90;99.90
7307;DHT22;3694;48.732;9.248;2023-05-07T13:34:19;13.90;99.90
7307;DHT22;3694;48.732;9.248;2023-05-07T13:36:45;14.00;99.90
7307;DHT22;3694;48.732;9.248;2023-05-07T13:39:11;14.00;99.90
7307;DHT22;3694;48.732;9.248;2023-05-07T13:41:36;14.00;99.90
7307;DHT22;3694;48.732;9.248;2023-05-07T13:44:02;14.00;99.90
7307;DHT22;3694;48.732;9.248;2023-05-07T13:46:27;14.00;99.90
7307;DHT22;3694;48.732;9.248;2023-05-07T13:48:53;13.90;99.90
7307;DHT22;3694;48.732;9.248;2023-05-07T13:51:18;13.90;99.90
7307;DHT22;3694;48.732;9.248;2023-05-07T13:53:44;13.90;99.90
7307;DHT22;3694;48.732;9.248;2023-05-07T13:56:10;13.80;99.90
7307;DHT22;3694;48.732;9.248;2023-05-07T13:58:36;13.90;99.90
7307;DHT22;3694;48.732;9.248;2023-05-07T14:01:01;13.90;99.90
7307;DHT22;3694;48.732;9.248;2023-05-07T14:03:27;14.00;99.90
7307;DHT22;3694;48.732;9.248;2023-05-07T14:05:52;14.10;99.90
7307;DHT22;3694;48.732;9.248;2023-05-07T14:08:18;14.10;99.90
7307;DHT22;3694;48.732;9.248;2023-05-07T14:10:45;14.20;99.90
7307;DHT22;3694;48.732;9.248;2023-05-07T14:13:11;14.20;99.90
7307;DHT22;3694;48.732;9.248;2023-05-07T14:15:37;14.20;99.90
7307;DHT22;3694;48.732;9.248;2023-05-07T14:18:03;14.20;99.90
7307;DHT22;3694;48.732;9.248;2023-05-07T14:20:28;14.20;99.90
7307;DHT22;3694;48.732;9.248;2023-05-07T14:22:55;14.30;99.90
7307;DHT22;3694;48.732;9.248;2023-05-07T14:25:21;14.30;99.90
7307;DHT22;3694;48.732;9.248;2023-05-07T14:27:46;14.30;99.90
7307;DHT22;3694;48.732;9.248;2023-05-07T14:30:12;14.40;99.90
7307;DHT22;3694;48.732;9.248;2023-05-07T14:32:40;14.40;99.90
7307;DHT22;3694;48.732;9.248;2023-05-07T14:35:06;14.40;99.90
7307;DHT22;3694;48.732;9.248;2023-05-07T14:37:32;14.40;99.90
7307;DHT22;3694;48.732;9.248;2023-05-07T14:39:57;14.40;99.90
7307;DHT22;3694;48.732;9.248;2023-05-07T14:42:23;14.50;99.90
7307;DHT22;3694;48.732;9.248;2023-05-07T14:44:48;14.40;99.90
7307;DHT22;3694;48.732;9.248;2023-05-07T14:47:14;14.40;99.90
7307;DHT22;3694;48.732;9.248;2023-05-07T14:49:42;14.40;99.90
7307;DHT22;3694;48.732;9.248;2023-05-07T14:52:08;14.40;99.90
7307;DHT22;3694;48.732;9.248;2023-05-07T14:54:35;14.40;99.90
7307;DHT22;3694;48.732;9.248;2023-05-07T14:57:01;14.40;99.90
7307;DHT22;3694;48.732;9.248;2023-05-07T14:59:27;14.50;99.90
7307;DHT22;3694;48.732;9.248;2023-05-07T15:01:52;14.50;99.90
7307;DHT22;3694;48.732;9.248;2023-05-07T15:04:19;14.60;99.90
7307;DHT22;3694;48.732;9.248;2023-05-07T15:06:44;14.60;99.90
7307;DHT22;3694;48.732;9.248;2023-05-07T15:09:11;14.70;99.90
7307;DHT22;3694;48.732;9.248;2023-05-07T15:11:36;14.70;99.90
7307;DHT22;3694;48.732;9.248;2023-05-07T15:14:02;14.80;99.90
7307;DHT22;3694;48.732;9.248;2023-05-07T15:16:27;14.90;99.90
7307;DHT22;3694;48.732;9.248;2023-05-07T15:18:53;14.90;99.90
7307;DHT22;3694;48.732;9.248;2023-05-07T15:21:18;15.00;99.90
7307;DHT22;3694;48.732;9.248;2023-05-07T15:23:44;15.10;99.90
7307;DHT22;3694;48.732;9.248;2023-05-07T15:26:10;15.20;99.90
7307;DHT22;3694;48.732;9.248;2023-05-07T15:28:36;15.30;99.90
7307;DHT22;3694;48.732;9.248;2023-05-07T15:31:01;15.40;99.90
7307;DHT22;3694;48.732;9.248;2023-05-07T15:33:27;15.50;99.90
7307;DHT22;3694;48.732;9.248;2023-05-07T15:35:52;15.60;99.90
7307;DHT22;3694;48.732;9.248;2023-05-07T15:38:18;15.70;99.90
7307;DHT22;3694;48.732;9.248;2023-05-07T15:40:44;15.80;99.90
7307;DHT22;3694;48.732;9.248;2023-05-07T15:43:10;15.70;99.90
7307;DHT22;3694;48.732;9.248;2023-05-07T15:45:39;15.60;99.90
7307;DHT22;3694;48.732;9.248;2023-05-07T15:48:06;15.70;99.90
7307;DHT22;3694;48.732;9.248;2023-05-07T15:50:31;15.80;99.90
7307;DHT22;3694;48.732;9.248;2023-05-07T15:52:57;15.80;99.90
7307;DHT22;3694;48.732;9.248;2023-05-07T15:55:23;15.60;99.90
7307;DHT22;3694;48.732;9.248;2023-05-07T15:57:49;15.40;99.90
7307;DHT22;3694;48.732;9.248;2023-05-07T16:00:14;15.20;99.90
7307;DHT22;3694;48.732;9.248;2023-05-07T16:02:42;15.30;99.90
7307;DHT22;3694;48.732;9.248;2023-05-07T16:05:08;15.10;99.90
7307;DHT22;3694;48.732;9.248;2023-05-07T16:07:35;15.10;99.90
7307;DHT22;3694;48.732;9.248;2023-05-07T16:10:01;15.00;99.90
7307;DHT22;3694;48.732;9.248;2023-05-07T16:12:27;14.90;99.90
7307;DHT22;3694;48.732;9.248;2023-05-07T16:14:52;14.80;99.90
7307;DHT22;3694;48.732;9.248;2023-05-07T16:17:18;14.70;99.90